createdAt,value
2023-05-10T00:00:41.132Z,3.20
2023-05-10T00:03:07.863Z,3.37
2023-05-10T00:05:34.595Z,2.77
2023-05-10T00:08:01.434Z,2.80
2023-05-10T00:10:28.168Z,3.47
2023-05-10T00:12:54.889Z,2.87
2023-05-10T00:15:21.836Z,3.30
2023-05-10T00:17:48.508Z,3.10
2023-05-10T00:20:15.504Z,3.30
2023-05-10T00:22:42.414Z,2.90
2023-05-10T00:25:09.492Z,2.63
2023-05-10T00:27:36.117Z,3.23
2023-05-10T00:30:03.863Z,3.00
2023-05-10T00:32:30.785Z,3.00
2023-05-10T00:34:57.644Z,2.70
2023-05-10T00:37:24.292Z,2.87
2023-05-10T00:39:50.908Z,3.10
2023-05-10T00:42:17.623Z,2.87
2023-05-10T00:44:46.389Z,3.10
2023-05-10T00:47:13.079Z,3.20
2023-05-10T00:49:39.730Z,3.43
2023-05-10T00:52:07.746Z,3.07
2023-05-10T00:54:34.472Z,3.03
2023-05-10T00:57:01.125Z,3.10
2023-05-10T00:59:27.810Z,3.10
2023-05-10T01:01:54.622Z,3.17
2023-05-10T01:04:26.476Z,3.10
2023-05-10T01:06:54.489Z,3.63
2023-05-10T01:09:21.642Z,3.10
2023-05-10T01:11:48.412Z,3.33
2023-05-10T01:14:15.273Z,3.10
2023-05-10T01:16:41.912Z,3.20
2023-05-10T01:19:13.756Z,3.77
2023-05-10T01:21:44.535Z,3.47
2023-05-10T01:24:14.308Z,3.00
2023-05-10T01:26:47.945Z,2.83
2023-05-10T01:29:20.376Z,3.17
2023-05-10T01:32:02.327Z,3.20
2023-05-10T01:34:30.608Z,3.30
2023-05-10T01:37:02.677Z,3.30
2023-05-10T01:39:29.742Z,3.00
2023-05-10T01:42:00.673Z,3.33
2023-05-10T02:16:25.951Z,3.60
2023-05-10T02:18:53.505Z,3.60
2023-05-10T02:21:22.255Z,3.50
2023-05-10T02:23:49.612Z,3.80
2023-05-10T02:26:16.188Z,3.30
2023-05-10T02:28:42.961Z,3.50
2023-05-10T02:31:11.807Z,3.30
2023-05-10T02:33:42.504Z,3.60
2023-05-10T02:36:09.695Z,3.90
2023-05-10T02:38:37.162Z,3.80
2023-05-10T02:41:05.088Z,3.57
2023-05-10T02:43:32.292Z,4.30
2023-05-10T02:45:59.900Z,4.07
2023-05-10T02:48:26.573Z,4.17
2023-05-10T02:50:53.616Z,4.23
2023-05-10T02:53:22.541Z,4.60
2023-05-10T02:55:51.740Z,4.27
2023-05-10T02:58:20.506Z,4.37
2023-05-10T03:00:47.736Z,4.23
2023-05-10T03:03:15.644Z,3.70
2023-05-10T03:05:42.560Z,4.40
2023-05-10T03:08:10.223Z,4.07
2023-05-10T03:10:39.312Z,3.97
2023-05-10T03:13:18.122Z,4.17
2023-05-10T03:16:03.864Z,4.50
2023-05-10T03:18:34.150Z,4.30
2023-05-10T03:21:07.230Z,4.13
2023-05-10T03:23:36.345Z,4.37
2023-05-10T03:26:03.150Z,4.37
2023-05-10T03:28:30.800Z,4.00
2023-05-10T03:30:57.917Z,4.50
2023-05-10T03:33:24.655Z,4.07
2023-05-10T03:35:51.481Z,4.30
2023-05-10T03:38:18.250Z,4.83
2023-05-10T03:40:45.036Z,4.67
2023-05-10T03:43:11.639Z,4.60
2023-05-10T03:45:38.265Z,4.37
2023-05-10T03:48:05.308Z,4.80
2023-05-10T03:50:32.028Z,4.60
2023-05-10T03:52:59.654Z,4.80
2023-05-10T03:55:28.044Z,5.03
2023-05-10T03:57:56.431Z,4.77
2023-05-10T04:00:27.788Z,5.13
2023-05-10T04:02:55.778Z,5.00
2023-05-10T04:05:23.510Z,4.97
2023-05-10T04:07:52.273Z,4.67
2023-05-10T04:10:19.164Z,4.77
2023-05-10T04:12:46.137Z,5.00
2023-05-10T04:15:12.985Z,4.87
2023-05-10T04:17:39.953Z,5.37
2023-05-10T04:20:07.234Z,5.87
2023-05-10T04:22:33.979Z,5.00
2023-05-10T04:25:00.604Z,5.23
2023-05-10T04:27:27.490Z,5.07
2023-05-10T04:29:54.204Z,5.43
2023-05-10T04:32:21.528Z,5.40
2023-05-10T04:34:48.315Z,5.20
2023-05-10T04:37:15.064Z,4.70
2023-05-10T04:39:42.490Z,4.57
2023-05-10T04:42:09.390Z,5.07
2023-05-10T04:44:36.503Z,4.50
2023-05-10T04:47:03.973Z,4.43
2023-05-10T04:49:31.091Z,3.90
2023-05-10T04:51:57.947Z,3.80
2023-05-10T04:54:24.739Z,3.93
2023-05-10T04:56:51.621Z,4.03
2023-05-10T04:59:18.639Z,4.00
2023-05-10T05:01:45.704Z,4.20
2023-05-10T05:04:12.600Z,3.90
2023-05-10T05:06:39.306Z,4.17
2023-05-10T05:09:07.460Z,3.90
2023-05-10T05:11:34.270Z,3.67
2023-05-10T05:14:00.975Z,4.00
2023-05-10T05:16:27.782Z,3.67
2023-05-10T05:18:54.772Z,4.00
2023-05-10T05:21:22.693Z,3.63
2023-05-10T05:23:49.409Z,3.60
2023-05-10T05:26:16.270Z,3.17
2023-05-10T05:28:44.385Z,3.87
2023-05-10T05:31:11.058Z,3.93
2023-05-10T05:33:40.153Z,3.80
2023-05-10T05:36:07.182Z,3.80
2023-05-10T05:38:33.931Z,3.20
2023-05-10T05:41:01.820Z,3.43
2023-05-10T05:43:30.079Z,3.60
2023-05-10T05:45:59.032Z,3.97
2023-05-10T05:48:25.979Z,4.27
2023-05-10T05:50:56.047Z,3.80
2023-05-10T05:53:24.985Z,4.03
2023-05-10T05:55:52.285Z,4.10
2023-05-10T05:58:19.002Z,3.30
2023-05-10T06:00:46.103Z,3.50
2023-05-10T06:03:13.123Z,4.20
2023-05-10T06:05:40.218Z,3.77
2023-05-10T06:08:07.056Z,3.63
2023-05-10T06:10:33.748Z,3.73
2023-05-10T06:13:01.101Z,3.53
2023-05-10T06:15:28.037Z,3.57
2023-05-10T06:17:55.165Z,3.97
2023-05-10T06:20:23.897Z,4.10
2023-05-10T06:22:50.610Z,4.27
2023-05-10T06:25:20.156Z,3.77
2023-05-10T06:27:50.412Z,3.30
2023-05-10T06:30:19.760Z,3.90
2023-05-10T06:32:47.284Z,4.20
2023-05-10T06:35:14.128Z,3.47
2023-05-10T06:37:40.877Z,3.87
2023-05-10T06:40:07.959Z,3.87
2023-05-10T06:42:34.598Z,3.83
2023-05-10T06:45:02.306Z,3.90
2023-05-10T06:47:28.916Z,3.97
2023-05-10T06:49:55.906Z,4.30
2023-05-10T06:52:22.601Z,3.80
2023-05-10T06:54:50.084Z,3.50
2023-05-10T06:57:30.586Z,3.60
2023-05-10T06:59:59.215Z,3.63
2023-05-10T07:02:25.855Z,4.00
2023-05-10T07:04:53.145Z,3.67
2023-05-10T07:07:20.122Z,3.13
2023-05-10T07:09:46.890Z,3.97
2023-05-10T07:12:15.354Z,3.20
2023-05-10T07:14:42.641Z,3.47
2023-05-10T07:17:09.471Z,3.67
2023-05-10T07:19:36.454Z,3.13
2023-05-10T07:22:04.449Z,3.37
2023-05-10T07:24:32.610Z,3.47
2023-05-10T07:26:59.176Z,3.03
2023-05-10T07:29:25.987Z,2.90
2023-05-10T07:31:52.767Z,2.57
2023-05-10T07:34:19.406Z,3.03
2023-05-10T07:36:46.201Z,3.00
2023-05-10T07:39:18.591Z,2.90
2023-05-10T07:41:51.360Z,3.10
2023-05-10T07:44:20.247Z,2.47
2023-05-10T07:46:47.243Z,2.67
2023-05-10T07:49:13.953Z,2.83
2023-05-10T07:51:40.854Z,2.97
2023-05-10T07:54:07.667Z,5.47
2023-05-10T07:56:34.706Z,2.60
2023-05-10T07:59:01.655Z,2.90
2023-05-10T08:01:30.873Z,2.63
2023-05-10T08:03:57.677Z,2.80
2023-05-10T08:06:24.432Z,2.70
2023-05-10T08:08:51.765Z,2.90
2023-05-10T08:11:18.631Z,2.63
2023-05-10T08:13:45.953Z,3.10
2023-05-10T08:16:12.699Z,2.57
2023-05-10T08:18:39.590Z,2.80
2023-05-10T08:21:06.367Z,2.80
2023-05-10T08:23:33.050Z,2.37
2023-05-10T08:26:00.130Z,2.53
2023-05-10T08:28:26.740Z,3.67
2023-05-10T08:30:53.626Z,2.90
2023-05-10T08:33:21.180Z,2.80
2023-05-10T08:35:50.101Z,3.03
2023-05-10T08:38:16.716Z,2.20
2023-05-10T08:40:43.865Z,5.63
2023-05-10T08:43:11.341Z,2.87
2023-05-10T08:45:38.670Z,3.47
2023-05-10T08:48:06.286Z,2.50
2023-05-10T08:50:32.983Z,2.70
2023-05-10T08:53:00.469Z,6.40
2023-05-10T08:55:27.164Z,3.10
2023-05-10T08:57:54.224Z,2.83
2023-05-10T09:00:21.110Z,2.27
2023-05-10T09:02:47.861Z,2.90
2023-05-10T09:05:17.158Z,2.50
2023-05-10T09:07:44.094Z,2.30
2023-05-10T09:10:11.147Z,2.67
2023-05-10T09:12:37.935Z,2.33
2023-05-10T09:15:04.933Z,3.37
2023-05-10T09:17:32.480Z,2.67
2023-05-10T09:20:02.876Z,2.67
2023-05-10T09:22:29.564Z,2.97
2023-05-10T09:25:06.454Z,2.20
2023-05-10T09:27:33.478Z,2.60
2023-05-10T09:30:00.080Z,2.40
2023-05-10T09:32:39.552Z,2.23
2023-05-10T09:35:16.355Z,2.40
2023-05-10T09:37:43.965Z,2.20
2023-05-10T09:40:14.475Z,1.90
2023-05-10T09:42:41.683Z,2.10
2023-05-10T09:45:08.517Z,2.30
2023-05-10T09:47:35.826Z,2.30
2023-05-10T09:50:05.748Z,2.60
2023-05-10T09:52:55.525Z,2.23
2023-05-10T09:55:23.182Z,2.37
2023-05-10T09:57:50.172Z,2.03
2023-05-10T10:00:20.189Z,2.27
2023-05-10T10:02:47.811Z,2.10
2023-05-10T10:05:14.628Z,2.83
2023-05-10T10:07:41.463Z,2.53
2023-05-10T10:10:12.533Z,2.10
2023-05-10T10:12:39.955Z,2.60
2023-05-10T10:15:08.628Z,2.20
2023-05-10T10:17:35.959Z,2.17
2023-05-10T10:20:03.527Z,2.30
2023-05-10T10:22:30.568Z,2.50
2023-05-10T10:24:57.165Z,3.37
2023-05-10T10:27:26.046Z,2.70
2023-05-10T10:29:52.620Z,2.13
2023-05-10T10:32:31.967Z,2.00
2023-05-10T10:34:59.821Z,2.40
2023-05-10T10:37:42.098Z,2.10
2023-05-10T10:40:23.437Z,2.77
2023-05-10T10:42:51.209Z,2.83
2023-05-10T10:45:18.360Z,3.10
2023-05-10T10:47:46.259Z,2.30
2023-05-10T10:50:17.243Z,2.20
2023-05-10T10:52:44.348Z,2.13
2023-05-10T10:55:11.064Z,2.40
2023-05-10T10:57:43.930Z,2.47
2023-05-10T11:00:23.783Z,2.17
2023-05-10T11:03:00.519Z,2.37
2023-05-10T11:05:30.305Z,2.40
2023-05-10T11:07:57.432Z,2.50
2023-05-10T11:10:24.429Z,2.23
2023-05-10T11:12:54.805Z,2.50
2023-05-10T11:15:29.299Z,2.13
2023-05-10T11:17:57.004Z,2.50
2023-05-10T11:20:25.988Z,2.23
2023-05-10T11:22:53.190Z,2.73
2023-05-10T11:25:20.119Z,2.30
2023-05-10T11:27:47.871Z,2.30
2023-05-10T11:30:14.699Z,2.60
2023-05-10T11:32:41.621Z,2.47
2023-05-10T11:35:11.714Z,2.03
2023-05-10T11:37:42.370Z,2.80
2023-05-10T11:40:10.817Z,2.40
2023-05-10T11:42:38.320Z,2.00
2023-05-10T11:45:07.637Z,2.60
2023-05-10T11:47:36.731Z,2.17
2023-05-10T11:50:03.737Z,2.40
2023-05-10T11:52:30.405Z,2.50
2023-05-10T11:54:57.108Z,2.50
2023-05-10T11:57:27.094Z,2.50
2023-05-10T11:59:59.706Z,2.27
2023-05-10T12:02:26.541Z,2.50
2023-05-10T12:04:53.342Z,2.30
2023-05-10T12:07:20.140Z,2.80
2023-05-10T12:10:03.534Z,2.40
2023-05-10T12:12:39.642Z,2.60
2023-05-10T12:15:07.458Z,2.67
2023-05-10T12:17:34.095Z,2.33
2023-05-10T12:20:14.933Z,2.47
2023-05-10T12:22:41.804Z,2.20
2023-05-10T12:25:09.420Z,2.10
2023-05-10T12:27:36.135Z,2.60
2023-05-10T12:30:03.559Z,2.37
2023-05-10T12:32:44.827Z,2.37
2023-05-10T12:35:11.537Z,2.30
2023-05-10T12:37:40.141Z,2.00
2023-05-10T12:40:07.914Z,2.50
2023-05-10T12:42:34.779Z,2.27
2023-05-10T12:45:01.397Z,3.67
2023-05-10T12:47:28.051Z,2.37
2023-05-10T12:49:54.671Z,2.40
2023-05-10T12:52:21.402Z,2.20
2023-05-10T12:54:48.943Z,2.60
2023-05-10T12:57:15.506Z,2.57
2023-05-10T12:59:42.178Z,2.03
2023-05-10T13:02:22.853Z,2.40
2023-05-10T13:04:51.010Z,2.30
2023-05-10T13:07:19.322Z,2.50
2023-05-10T13:09:48.825Z,2.53
2023-05-10T13:12:15.932Z,2.20
2023-05-10T13:14:46.163Z,2.20
2023-05-10T13:17:14.681Z,2.60
2023-05-10T13:19:42.706Z,2.27
2023-05-10T13:22:12.020Z,3.10
2023-05-10T13:24:41.414Z,2.57
2023-05-10T13:27:09.601Z,2.60
2023-05-10T13:29:36.316Z,2.33
2023-05-10T13:32:03.498Z,2.70
2023-05-10T13:34:30.405Z,2.40
2023-05-10T13:36:58.458Z,2.30
2023-05-10T13:39:26.260Z,2.30
2023-05-10T13:41:53.864Z,2.20
2023-05-10T13:44:21.971Z,2.40
2023-05-10T13:46:51.026Z,2.47
2023-05-10T13:49:17.765Z,2.50
2023-05-10T13:51:44.984Z,2.50
2023-05-10T13:54:13.553Z,2.43
2023-05-10T13:56:41.887Z,2.93
2023-05-10T13:59:09.714Z,2.20
2023-05-10T14:01:36.545Z,2.40
2023-05-10T14:04:11.455Z,2.50
2023-05-10T14:06:38.622Z,2.20
2023-05-10T14:09:05.242Z,2.50
2023-05-10T14:11:31.952Z,2.43
2023-05-10T14:13:58.615Z,2.20
2023-05-10T14:16:25.451Z,2.33
2023-05-10T14:18:52.177Z,2.20
2023-05-10T14:21:19.913Z,2.50
2023-05-10T14:23:46.792Z,2.50
2023-05-10T14:26:13.499Z,2.10
2023-05-10T14:28:40.248Z,2.30
2023-05-10T14:31:07.975Z,2.40
2023-05-10T14:33:34.877Z,2.30
2023-05-10T14:36:01.580Z,2.10
2023-05-10T14:38:28.226Z,2.50
2023-05-10T14:40:55.090Z,2.27
2023-05-10T14:43:21.950Z,2.00
2023-05-10T14:45:48.703Z,2.13
2023-05-10T14:48:18.399Z,2.23
2023-05-10T14:50:46.306Z,2.97
2023-05-10T14:53:12.985Z,2.20
2023-05-10T14:55:40.085Z,2.20
2023-05-10T14:58:06.739Z,2.30
2023-05-10T15:00:33.533Z,2.50
2023-05-10T15:03:01.526Z,2.10
2023-05-10T15:05:28.886Z,2.30
2023-05-10T15:07:55.947Z,2.37
2023-05-10T15:10:23.608Z,2.27
2023-05-10T15:12:50.920Z,2.00
2023-05-10T15:15:17.796Z,2.10
2023-05-10T15:17:44.917Z,2.20
2023-05-10T15:20:11.820Z,2.40
2023-05-10T15:22:39.305Z,2.23
2023-05-10T15:25:06.654Z,2.10
2023-05-10T15:27:33.436Z,2.33
2023-05-10T15:30:01.453Z,2.13
2023-05-10T15:32:28.201Z,2.00
2023-05-10T15:34:57.146Z,2.23
2023-05-10T15:37:24.816Z,2.10
2023-05-10T15:39:52.549Z,2.10
2023-05-10T15:42:19.474Z,2.20
2023-05-10T15:44:51.263Z,2.23
2023-05-10T15:47:18.448Z,2.10
2023-05-10T15:49:45.513Z,1.70
2023-05-10T15:52:12.728Z,2.00
2023-05-10T15:54:39.886Z,1.97
2023-05-10T15:57:06.877Z,2.13
2023-05-10T15:59:33.974Z,2.03
2023-05-10T16:02:01.325Z,1.90
2023-05-10T16:04:28.177Z,2.30
2023-05-10T16:06:57.603Z,2.00
2023-05-10T16:09:24.332Z,2.17
2023-05-10T16:11:51.365Z,2.10
2023-05-10T16:14:18.286Z,1.90
2023-05-10T16:16:46.322Z,1.80
2023-05-10T16:19:13.260Z,2.10
2023-05-10T16:21:40.195Z,2.33
2023-05-10T16:24:07.087Z,1.90
2023-05-10T16:26:40.072Z,1.90
2023-05-10T16:29:07.792Z,2.30
2023-05-10T16:31:34.963Z,2.17
2023-05-10T16:34:01.946Z,2.03
2023-05-10T16:36:31.650Z,1.90
2023-05-10T16:39:24.009Z,2.07
2023-05-10T16:41:51.154Z,1.90
2023-05-10T16:44:20.300Z,2.27
2023-05-10T16:46:50.423Z,2.20
2023-05-10T16:49:17.493Z,2.07
2023-05-10T16:51:44.573Z,2.10
2023-05-10T16:54:11.568Z,1.83
2023-05-10T16:56:39.151Z,1.97
2023-05-10T16:59:06.093Z,2.27
2023-05-10T17:01:33.773Z,2.10
2023-05-10T17:04:00.998Z,1.90
2023-05-10T17:06:29.525Z,2.13
2023-05-10T17:08:56.379Z,1.83
2023-05-10T17:11:23.320Z,2.10
2023-05-10T17:13:52.230Z,2.00
2023-05-10T17:16:21.119Z,1.93
2023-05-10T17:18:48.127Z,1.87
2023-05-10T17:21:15.164Z,2.10
2023-05-10T17:23:43.864Z,1.90
2023-05-10T17:26:10.776Z,2.10
2023-05-10T17:28:37.615Z,2.00
2023-05-10T17:31:05.923Z,2.00
2023-05-10T17:33:32.792Z,1.90
2023-05-10T17:36:00.713Z,2.20
2023-05-10T17:38:28.987Z,2.33
2023-05-10T17:40:56.385Z,2.40
2023-05-10T17:43:23.624Z,2.37
2023-05-10T17:45:52.765Z,2.40
2023-05-10T17:48:20.274Z,1.80
2023-05-10T17:50:49.736Z,2.27
2023-05-10T17:53:16.833Z,2.10
2023-05-10T17:55:44.415Z,2.13
2023-05-10T17:58:11.494Z,2.00
2023-05-10T18:00:39.913Z,2.07
2023-05-10T18:03:06.822Z,2.20
2023-05-10T18:05:37.493Z,2.00
2023-05-10T18:08:04.861Z,1.93
2023-05-10T18:10:31.960Z,1.83
2023-05-10T18:12:59.771Z,2.40
2023-05-10T18:15:27.169Z,1.80
2023-05-10T18:17:54.116Z,2.60
2023-05-10T18:20:22.122Z,2.80
2023-05-10T18:25:40.599Z,3.20
2023-05-10T18:28:09.789Z,3.63
2023-05-10T18:30:36.800Z,3.57
2023-05-10T18:33:03.664Z,3.07
2023-05-10T18:35:31.547Z,3.10
2023-05-10T18:37:58.604Z,2.93
2023-05-10T18:40:25.976Z,2.67
2023-05-10T18:42:54.136Z,2.40
2023-05-10T18:45:21.144Z,2.97
2023-05-10T18:47:48.634Z,2.70
2023-05-10T18:50:18.583Z,2.80
2023-05-10T18:52:46.001Z,2.60
2023-05-10T18:55:13.110Z,2.80
2023-05-10T18:57:41.941Z,2.70
2023-05-10T19:00:13.157Z,3.13
2023-05-10T19:02:40.126Z,3.07
2023-05-10T19:05:08.489Z,2.73
2023-05-10T19:07:35.350Z,2.90
2023-05-10T19:10:02.878Z,2.80
2023-05-10T19:12:30.019Z,2.80
2023-05-10T19:14:57.217Z,2.63
2023-05-10T19:17:25.369Z,2.70
2023-05-10T19:19:52.462Z,3.07
2023-05-10T19:22:31.925Z,3.00
2023-05-10T19:25:07.610Z,3.10
2023-05-10T19:27:35.199Z,2.97
2023-05-10T19:30:05.053Z,3.53
2023-05-10T19:32:32.117Z,3.30
2023-05-10T19:34:59.137Z,3.23
2023-05-10T19:37:26.453Z,3.60
2023-05-10T19:39:53.663Z,3.60
2023-05-10T19:42:21.404Z,3.50
2023-05-10T19:44:48.401Z,3.87
2023-05-10T19:47:16.263Z,3.80
2023-05-10T19:49:43.042Z,3.73
2023-05-10T19:52:11.703Z,3.30
2023-05-10T19:54:38.583Z,3.47
2023-05-10T19:57:05.476Z,3.90
2023-05-10T19:59:32.888Z,3.07
2023-05-10T20:01:59.752Z,3.07
2023-05-10T20:04:28.951Z,3.20
2023-05-10T20:06:56.172Z,3.30
2023-05-10T20:09:25.224Z,3.30
2023-05-10T20:11:52.045Z,2.90
2023-05-10T20:14:18.904Z,3.60
2023-05-10T20:16:50.404Z,3.03
2023-05-10T20:19:17.366Z,3.53
2023-05-10T20:21:44.192Z,3.37
2023-05-10T20:24:11.413Z,3.00
2023-05-10T20:29:22.484Z,3.00
2023-05-10T20:31:52.095Z,3.10
2023-05-10T20:34:19.668Z,2.90
2023-05-10T20:36:51.363Z,2.93
2023-05-10T20:39:18.916Z,3.07
2023-05-10T20:41:46.376Z,2.30
2023-05-10T20:44:14.272Z,2.50
2023-05-10T20:46:41.047Z,2.53
2023-05-10T20:49:09.108Z,2.30
2023-05-10T20:51:40.532Z,2.60
2023-05-10T20:54:08.088Z,2.40
2023-05-10T20:56:35.134Z,2.43
2023-05-10T20:59:03.075Z,2.40
2023-05-10T21:01:29.945Z,2.50
2023-05-10T21:03:58.252Z,2.50
2023-05-10T21:06:26.424Z,2.30
2023-05-10T21:08:55.420Z,2.63
2023-05-10T21:11:22.612Z,2.60
2023-05-10T21:13:50.146Z,2.47
2023-05-10T21:16:16.747Z,2.63
2023-05-10T21:18:43.461Z,2.73
2023-05-10T21:21:10.105Z,2.60
2023-05-10T21:23:36.714Z,2.50
2023-05-10T21:26:03.805Z,2.37
2023-05-10T21:28:44.051Z,2.67
2023-05-10T21:31:10.978Z,2.60
2023-05-10T21:33:37.591Z,1.93
2023-05-10T21:36:04.409Z,2.50
2023-05-10T21:38:31.523Z,2.50
2023-05-10T21:40:58.259Z,2.50
2023-05-10T21:43:24.862Z,2.80
2023-05-10T21:45:51.623Z,2.50
2023-05-10T21:48:18.244Z,2.60
2023-05-10T21:50:44.878Z,2.70
2023-05-10T21:53:11.984Z,2.43
2023-05-10T21:55:39.124Z,2.63
2023-05-10T21:58:06.110Z,2.70
2023-05-10T22:00:34.170Z,2.47
2023-05-10T22:03:01.331Z,2.97
2023-05-10T22:05:28.511Z,2.77
2023-05-10T22:07:55.196Z,2.60
2023-05-10T22:10:21.785Z,2.80
2023-05-10T22:12:48.664Z,2.53
2023-05-10T22:15:18.948Z,3.27
2023-05-10T22:17:48.426Z,2.80
2023-05-10T22:20:15.251Z,3.10
2023-05-10T22:22:44.088Z,2.80
2023-05-10T22:25:10.916Z,2.90
2023-05-10T22:27:37.806Z,2.90
2023-05-10T22:30:04.662Z,2.70
2023-05-10T22:32:31.879Z,2.93
2023-05-10T22:34:58.495Z,2.67
2023-05-10T22:37:25.082Z,2.77
2023-05-10T22:39:51.687Z,2.67
2023-05-10T22:42:18.401Z,2.63
2023-05-10T22:44:44.991Z,2.67
2023-05-10T22:47:13.369Z,2.60
2023-05-10T22:49:39.956Z,2.77
2023-05-10T22:52:06.496Z,2.90
2023-05-10T22:54:34.892Z,3.00
2023-05-10T22:57:03.701Z,2.47
2023-05-10T22:59:30.264Z,2.80
2023-05-10T23:01:56.940Z,2.77
2023-05-10T23:04:23.480Z,2.40
2023-05-10T23:06:50.164Z,2.80
2023-05-10T23:09:16.796Z,2.70
2023-05-10T23:11:43.324Z,2.63
2023-05-10T23:14:09.855Z,2.67
2023-05-10T23:16:36.805Z,2.40
2023-05-10T23:19:03.550Z,2.70
2023-05-10T23:21:32.212Z,3.60
2023-05-10T23:23:59.173Z,3.43
2023-05-10T23:26:26.956Z,3.30
2023-05-10T23:28:53.535Z,3.97
2023-05-10T23:31:20.968Z,3.97
2023-05-10T23:33:47.565Z,4.13
2023-05-10T23:36:14.236Z,3.90
2023-05-10T23:38:40.792Z,5.13
2023-05-10T23:41:07.370Z,5.20
2023-05-10T23:43:33.965Z,5.30
2023-05-10T23:46:01.660Z,4.40
2023-05-10T23:48:28.413Z,4.00
2023-05-10T23:50:55.125Z,3.80
2023-05-10T23:53:22.647Z,4.10
2023-05-10T23:55:50.097Z,3.97
2023-05-10T23:58:16.843Z,3.50
